Time;durP1;ratioP1;P1;durP2;ratioP2;P2;SDS_P1;SDS_P2;PMS_P1;PMS_P2;Temp;Humidity;BMP_temperature;BMP_pressure;BME280_temperature;BME280_humidity;BME280_pressure;Samples;Min_cycle;Max_cycle;Signal;HPM_P1;HPM_P2
2023/07/24 00:02:26;;;;;;;11.82;6.60;;;18.20;99.90;;;;;;5134839;27;20408;-65
2023/07/24 00:04:53;;;;;;;16.23;6.68;;;18.10;99.90;;;;;;5129408;27;20496;-66
2023/07/24 00:07:20;;;;;;;11.05;6.88;;;18.00;99.90;;;;;;5130748;27;20054;-66
2023/07/24 00:09:47;;;;;;;12.85;7.38;;;18.10;99.90;;;;;;5129866;27;20049;-66
2023/07/24 00:12:14;;;;;;;12.70;7.28;;;18.10;99.90;;;;;;5134342;27;20043;-66
2023/07/24 00:14:41;;;;;;;18.88;7.15;;;18.10;99.90;;;;;;5116032;27;20043;-66
2023/07/24 00:17:07;;;;;;;12.60;7.38;;;18.10;99.90;;;;;;5130803;27;20422;-65
2023/07/24 00:19:35;;;;;;;15.00;7.68;;;18.10;99.90;;;;;;5134411;27;20038;-66
2023/07/24 00:22:01;;;;;;;14.55;7.80;;;18.10;99.90;;;;;;5134715;27;20404;-66
2023/07/24 00:24:31;;;;;;;13.32;7.07;;;18.00;99.90;;;;;;5126041;27;20050;-65
2023/07/24 00:26:58;;;;;;;15.50;7.20;;;18.00;99.90;;;;;;5134705;27;20070;-66
2023/07/24 00:29:24;;;;;;;13.98;7.55;;;18.00;99.90;;;;;;5128269;27;20510;-66
2023/07/24 00:31:51;;;;;;;12.40;7.47;;;18.00;99.90;;;;;;5134439;27;20050;-66
2023/07/24 00:34:18;;;;;;;11.30;7.00;;;18.10;99.90;;;;;;5113219;27;20043;-66
2023/07/24 00:36:45;;;;;;;11.93;7.20;;;18.00;99.90;;;;;;5114682;27;20656;-66
2023/07/24 00:39:14;;;;;;;16.80;7.38;;;18.00;99.90;;;;;;5132793;27;20479;-66
2023/07/24 00:41:42;;;;;;;14.68;7.45;;;18.00;99.90;;;;;;5113065;27;20040;-66
2023/07/24 00:44:09;;;;;;;13.50;6.93;;;18.00;99.90;;;;;;5108753;27;20141;-66
2023/07/24 00:46:36;;;;;;;11.80;7.00;;;18.00;99.90;;;;;;5133797;27;20502;-66
2023/07/24 00:49:04;;;;;;;15.70;8.20;;;18.00;99.90;;;;;;5118000;27;20043;-65
2023/07/24 00:51:33;;;;;;;15.75;7.50;;;18.00;99.90;;;;;;5133939;27;20066;-66
2023/07/24 00:54:02;;;;;;;15.65;7.60;;;17.90;99.90;;;;;;5114861;27;20047;-66
2023/07/24 00:56:31;;;;;;;12.93;7.30;;;17.90;99.90;;;;;;5109692;27;20472;-66
2023/07/24 00:58:59;;;;;;;16.08;8.43;;;17.90;99.90;;;;;;5113172;27;20043;-66
2023/07/24 01:01:26;;;;;;;16.35;7.90;;;18.00;99.90;;;;;;5114215;27;20069;-66
2023/07/24 01:03:54;;;;;;;14.15;7.70;;;18.00;99.90;;;;;;5114377;27;20038;-66
2023/07/24 01:06:20;;;;;;;;;;;18.10;99.90;;;;;;5114747;27;20059;-66
2023/07/24 01:08:47;;;;;;;12.75;7.07;;;18.00;99.90;;;;;;5114580;27;19930;-66
2023/07/24 01:11:24;;;;;;;13.43;6.82;;;18.00;99.90;;;;;;5130439;27;20043;-66
2023/07/24 01:14:14;;;;;;;15.87;7.67;;;18.00;99.90;;;;;;5115036;27;20519;-66
2023/07/24 01:16:43;;;;;;;14.60;7.80;;;18.00;99.90;;;;;;5123927;27;20591;-66
2023/07/24 01:19:20;;;;;;;13.38;8.45;;;18.00;99.90;;;;;;5114903;27;20047;-66
2023/07/24 01:22:10;;;;;;;14.77;7.53;;;17.90;99.90;;;;;;5133435;27;20039;-66
2023/07/24 01:24:46;;;;;;;14.68;7.78;;;17.80;99.90;;;;;;5121167;27;20039;-66
2023/07/24 01:27:25;;;;;;;14.98;8.02;;;17.70;99.90;;;;;;5115101;27;20050;-66
2023/07/24 01:29:52;;;;;;;14.65;8.30;;;17.70;99.90;;;;;;5132498;27;20069;-66
2023/07/24 01:32:20;;;;;;;14.77;7.88;;;17.70;99.90;;;;;;5131483;27;20069;-66
2023/07/24 01:34:47;;;;;;;11.70;7.20;;;17.60;99.90;;;;;;5109669;27;20031;-66
2023/07/24 01:37:15;;;;;;;19.63;8.13;;;17.60;99.90;;;;;;5133258;27;20043;-66
2023/07/24 01:39:44;;;;;;;17.90;8.25;;;17.70;99.90;;;;;;5132616;27;20047;-66
2023/07/24 01:42:11;;;;;;;16.35;8.70;;;17.60;99.90;;;;;;5131763;27;20150;-66
2023/07/24 01:44:38;;;;;;;13.85;7.47;;;17.60;99.90;;;;;;5113909;27;20043;-66
2023/07/24 01:47:05;;;;;;;13.75;7.32;;;17.50;99.90;;;;;;5124350;27;20465;-66
2023/07/24 01:49:32;;;;;;;13.35;7.65;;;17.50;99.90;;;;;;5129780;27;20051;-66
2023/07/24 01:51:59;;;;;;;13.60;8.63;;;17.50;99.90;;;;;;5114394;27;20136;-66
2023/07/24 01:54:25;;;;;;;13.05;7.78;;;17.60;99.90;;;;;;5104025;27;20171;-66
2023/07/24 01:56:52;;;;;;;12.80;7.55;;;17.60;99.90;;;;;;5114019;27;20082;-66
2023/07/24 01:59:19;;;;;;;14.07;7.85;;;17.60;99.90;;;;;;5110488;28;20446;-66
2023/07/24 02:01:46;;;;;;;14.05;7.80;;;17.60;99.90;;;;;;5114216;27;20043;-66
2023/07/24 02:04:14;;;;;;;13.60;8.20;;;17.60;99.90;;;;;;5112781;27;20059;-65
2023/07/24 02:06:41;;;;;;;15.82;9.57;;;17.60;99.90;;;;;;5125270;27;20139;-66
2023/07/24 02:09:08;;;;;;;15.30;8.70;;;17.60;99.90;;;;;;5113693;27;20071;-65
2023/07/24 02:11:34;;;;;;;18.63;8.40;;;17.70;99.90;;;;;;5112139;27;20043;-66
2023/07/24 02:14:01;;;;;;;17.15;9.15;;;17.70;99.90;;;;;;5105908;27;20031;-65
2023/07/24 02:16:28;;;;;;;11.38;7.57;;;17.80;99.90;;;;;;5125565;27;20043;-65
2023/07/24 02:18:55;;;;;;;13.65;8.10;;;17.50;99.90;;;;;;5111701;27;20040;-66
2023/07/24 02:21:22;;;;;;;14.77;7.88;;;17.60;99.90;;;;;;5125023;27;20039;-66
2023/07/24 02:23:49;;;;;;;16.20;8.55;;;17.60;99.90;;;;;;5130712;27;20125;-66
2023/07/24 02:26:15;;;;;;;13.75;7.57;;;17.50;99.90;;;;;;5131853;27;20042;-66
2023/07/24 02:28:42;;;;;;;14.02;7.38;;;17.50;99.90;;;;;;5131442;27;20042;-66
2023/07/24 02:31:09;;;;;;;18.20;8.13;;;17.40;99.90;;;;;;5125303;27;20038;-66
2023/07/24 02:33:36;;;;;;;12.93;7.38;;;17.40;99.90;;;;;;5112236;28;20035;-66
2023/07/24 02:36:03;;;;;;;15.63;8.57;;;17.50;99.90;;;;;;5112862;27;20134;-66
2023/07/24 02:38:30;;;;;;;17.60;8.52;;;17.40;99.90;;;;;;5132002;28;20042;-65
2023/07/24 02:40:57;;;;;;;15.30;8.13;;;17.40;99.90;;;;;;5127653;28;20384;-66
2023/07/24 02:43:23;;;;;;;;;;;17.40;99.90;;;;;;5112959;27;20035;-66
2023/07/24 02:45:50;;;;;;;14.40;8.40;;;17.40;99.90;;;;;;5124884;28;19924;-66
2023/07/24 02:48:17;;;;;;;17.00;8.48;;;17.30;99.90;;;;;;5130607;28;20031;-66
2023/07/24 02:50:44;;;;;;;16.52;7.35;;;17.30;99.90;;;;;;5113235;28;20066;-66
2023/07/24 02:53:11;;;;;;;12.88;7.57;;;17.30;99.90;;;;;;5111196;28;20040;-66
2023/07/24 02:55:43;;;;;;;13.38;7.28;;;17.30;99.90;;;;;;5107965;28;20042;-66
2023/07/24 02:58:13;;;;;;;14.52;8.15;;;17.30;99.90;;;;;;5105335;28;20054;-66
2023/07/24 03:00:40;;;;;;;13.77;8.10;;;17.20;99.90;;;;;;5109639;28;20057;-66
2023/07/24 03:03:07;;;;;;;;;;;17.20;99.90;;;;;;5122942;27;20061;-66
2023/07/24 03:05:34;;;;;;;16.75;9.68;;;17.20;99.90;;;;;;5112131;28;19919;-66
2023/07/24 03:08:01;;;;;;;17.77;8.63;;;17.20;99.90;;;;;;5123699;27;20039;-66
2023/07/24 03:10:29;;;;;;;15.40;8.43;;;17.20;99.90;;;;;;5112172;28;20130;-66
2023/07/24 03:12:56;;;;;;;18.33;8.90;;;17.20;99.90;;;;;;5112141;28;20057;-66
2023/07/24 03:15:23;;;;;;;14.90;8.38;;;17.20;99.90;;;;;;5113229;28;20410;-66
2023/07/24 03:17:50;;;;;;;16.08;8.85;;;17.20;99.90;;;;;;5127440;28;20643;-66
2023/07/24 03:20:18;;;;;;;16.02;8.48;;;17.20;99.90;;;;;;5127484;27;20028;-66
2023/07/24 03:22:45;;;;;;;14.45;8.48;;;17.10;99.90;;;;;;5112712;27;20035;-66
2023/07/24 03:25:13;;;;;;;18.58;8.20;;;17.10;99.90;;;;;;5117385;27;20084;-66
2023/07/24 03:27:40;;;;;;;14.18;8.15;;;17.20;99.90;;;;;;5116191;27;20039;-66
2023/07/24 03:30:07;;;;;;;17.42;8.65;;;17.10;99.90;;;;;;5116873;27;20129;-66
2023/07/24 03:32:36;;;;;;;18.33;8.05;;;17.10;99.90;;;;;;5133545;27;20397;-66
2023/07/24 03:35:05;;;;;;;14.68;8.98;;;17.20;99.90;;;;;;5125620;27;20035;-66
2023/07/24 03:37:32;;;;;;;16.73;8.63;;;17.10;99.90;;;;;;5121764;27;20414;-66
2023/07/24 03:39:59;;;;;;;;;;;17.10;99.90;;;;;;5135502;27;20050;-66
2023/07/24 03:42:31;;;;;;;17.65;8.00;;;17.10;99.90;;;;;;5130521;27;19920;-66
2023/07/24 03:44:58;;;;;;;15.65;8.48;;;17.00;99.90;;;;;;5138267;27;20043;-65
2023/07/24 03:47:25;;;;;;;16.20;8.27;;;17.00;99.90;;;;;;5114248;27;20424;-66
2023/07/24 03:49:52;;;;;;;15.98;8.50;;;16.90;99.90;;;;;;5134982;27;20053;-66
2023/07/24 03:52:19;;;;;;;17.80;8.63;;;17.10;99.90;;;;;;5134872;27;20043;-66
2023/07/24 03:54:46;;;;;;;16.98;8.38;;;17.00;99.90;;;;;;5132032;27;20062;-66
2023/07/24 03:57:13;;;;;;;18.13;8.38;;;17.10;99.90;;;;;;5142211;27;20035;-66
2023/07/24 03:59:40;;;;;;;14.93;8.63;;;17.00;99.90;;;;;;5112605;27;20510;-66
2023/07/24 04:02:07;;;;;;;14.43;8.65;;;17.00;99.90;;;;;;5128286;27;20510;-66
2023/07/24 04:04:37;;;;;;;16.70;8.50;;;17.10;99.90;;;;;;5127310;27;20088;-66
2023/07/24 04:07:04;;;;;;;;;;;17.00;99.90;;;;;;5133310;27;20139;-66
2023/07/24 04:09:31;;;;;;;14.52;8.55;;;17.00;99.90;;;;;;5134021;27;19920;-66
2023/07/24 04:11:58;;;;;;;14.82;7.82;;;17.00;99.90;;;;;;5130543;27;20044;-65
2023/07/24 04:14:24;;;;;;;16.95;8.50;;;16.90;99.90;;;;;;5134801;27;20042;-65
2023/07/24 04:16:51;;;;;;;15.65;8.80;;;16.90;99.90;;;;;;5129701;27;20043;-66
2023/07/24 04:19:18;;;;;;;16.25;9.30;;;16.90;99.90;;;;;;5134059;27;20084;-66
2023/07/24 04:21:45;;;;;;;15.40;8.98;;;17.00;99.90;;;;;;5140237;27;20123;-66
2023/07/24 04:24:11;;;;;;;17.65;8.65;;;17.00;99.90;;;;;;5134629;27;20039;-66
2023/07/24 04:26:39;;;;;;;16.38;8.88;;;16.90;99.90;;;;;;5123819;27;20046;-66
2023/07/24 04:29:06;;;;;;;14.80;8.50;;;16.90;99.90;;;;;;5133024;27;20065;-65
2023/07/24 04:31:33;;;;;;;16.40;8.25;;;16.80;99.90;;;;;;5110504;27;20078;-65
2023/07/24 04:34:00;;;;;;;15.45;8.52;;;16.90;99.90;;;;;;5134316;27;20043;-66
2023/07/24 04:36:27;;;;;;;15.52;8.57;;;16.90;99.90;;;;;;5132848;27;20035;-66
2023/07/24 04:38:54;;;;;;;15.95;8.73;;;16.90;99.90;;;;;;5131969;27;20110;-66
2023/07/24 04:41:21;;;;;;;18.92;9.20;;;16.70;99.90;;;;;;5134656;27;20031;-66
2023/07/24 04:43:47;;;;;;;13.82;8.00;;;16.90;99.90;;;;;;5132001;27;20464;-66
2023/07/24 04:46:14;;;;;;;16.60;7.88;;;17.00;99.90;;;;;;5134243;27;20498;-66
2023/07/24 04:48:41;;;;;;;15.45;8.30;;;17.10;99.90;;;;;;5133578;27;20035;-65
2023/07/24 04:51:08;;;;;;;18.90;8.75;;;17.10;99.90;;;;;;5115425;27;20122;-66
2023/07/24 04:53:35;;;;;;;18.33;8.75;;;17.20;99.90;;;;;;5130662;27;20100;-65
2023/07/24 04:56:01;;;;;;;21.27;9.60;;;17.20;99.90;;;;;;5133892;27;20489;-66
2023/07/24 04:58:28;;;;;;;14.93;8.60;;;17.30;99.90;;;;;;5131885;27;20043;-65
2023/07/24 05:00:55;;;;;;;18.70;8.77;;;17.50;99.90;;;;;;5126445;27;20050;-66
2023/07/24 05:03:22;;;;;;;20.58;8.63;;;17.50;99.90;;;;;;5132278;27;20114;-65
2023/07/24 05:05:53;;;;;;;16.52;9.85;;;17.60;99.90;;;;;;5113211;27;20503;-66
2023/07/24 05:08:20;;;;;;;16.55;9.45;;;17.70;99.90;;;;;;5125424;27;20043;-66
2023/07/24 05:10:47;;;;;;;16.13;8.05;;;17.70;99.90;;;;;;5112178;27;20042;-65
2023/07/24 05:13:13;;;;;;;18.52;9.30;;;17.80;99.90;;;;;;5133515;27;20132;-65
2023/07/24 05:15:40;;;;;;;14.80;8.45;;;17.90;99.90;;;;;;5132293;27;20049;-65
2023/07/24 05:18:07;;;;;;;20.20;8.90;;;17.90;99.90;;;;;;5131647;27;20126;-66
2023/07/24 05:20:34;;;;;;;15.35;8.30;;;18.00;99.90;;;;;;5127360;27;20040;-66
2023/07/24 05:23:01;;;;;;;17.50;9.05;;;18.00;99.90;;;;;;5131974;27;20032;-66
2023/07/24 05:25:27;;;;;;;16.63;9.05;;;18.10;99.90;;;;;;5133109;27;20049;-66
2023/07/24 05:27:54;;;;;;;17.98;8.52;;;18.10;99.90;;;;;;5133349;27;20400;-65
2023/07/24 05:30:21;;;;;;;17.25;8.77;;;18.30;99.90;;;;;;5122234;27;20035;-65
2023/07/24 05:32:48;;;;;;;12.40;8.25;;;18.50;99.90;;;;;;5133259;27;20031;-65
2023/07/24 05:35:14;;;;;;;16.95;9.27;;;18.60;99.90;;;;;;5110836;27;20132;-65
2023/07/24 05:37:41;;;;;;;16.88;9.68;;;18.70;99.90;;;;;;5133468;27;20104;-65
2023/07/24 05:40:08;;;;;;;17.23;9.50;;;18.70;99.90;;;;;;5132033;27;20035;-65
2023/07/24 05:42:41;;;;;;;14.00;9.27;;;18.90;99.90;;;;;;5130156;27;20039;-65
2023/07/24 05:45:08;;;;;;;16.10;8.82;;;18.90;99.90;;;;;;5132697;27;20365;-65
2023/07/24 05:47:35;;;;;;;17.33;9.90;;;19.00;99.90;;;;;;5132248;27;20062;-65
2023/07/24 05:50:02;;;;;;;19.10;9.43;;;18.90;99.90;;;;;;5129074;27;20047;-65
2023/07/24 05:52:29;;;;;;;18.00;8.60;;;18.90;99.90;;;;;;5133054;27;20043;-65
2023/07/24 05:54:56;;;;;;;16.55;9.15;;;18.80;99.90;;;;;;5130979;27;20035;-66
2023/07/24 05:57:23;;;;;;;17.23;8.77;;;18.80;99.90;;;;;;5119282;27;20400;-66
2023/07/24 05:59:51;;;;;;;16.38;9.38;;;18.80;99.90;;;;;;5127982;27;20043;-65
2023/07/24 06:02:18;;;;;;;17.48;9.35;;;18.80;99.90;;;;;;5132521;27;20050;-66
2023/07/24 06:04:45;;;;;;;18.38;10.18;;;18.80;99.90;;;;;;5125852;27;20047;-66
2023/07/24 06:07:12;;;;;;;13.05;8.63;;;18.90;99.90;;;;;;5131070;27;20058;-66
2023/07/24 06:09:38;;;;;;;18.85;9.13;;;18.90;99.90;;;;;;5131972;27;20046;-65
2023/07/24 06:12:05;;;;;;;13.23;8.63;;;18.90;99.90;;;;;;5124151;27;20043;-66
2023/07/24 06:14:32;;;;;;;14.75;9.25;;;18.90;99.90;;;;;;5132175;27;20033;-66
2023/07/24 06:16:59;;;;;;;15.95;9.55;;;18.80;99.90;;;;;;5131685;27;20054;-66
2023/07/24 06:19:26;;;;;;;16.13;9.32;;;18.90;99.90;;;;;;5129005;27;20514;-66
2023/07/24 06:21:52;;;;;;;18.13;9.63;;;18.90;99.90;;;;;;5128135;27;20045;-66
2023/07/24 06:24:20;;;;;;;16.35;9.13;;;19.00;99.90;;;;;;5132119;27;20050;-66
2023/07/24 06:26:47;;;;;;;18.08;9.32;;;18.90;99.90;;;;;;5132797;27;20043;-66
2023/07/24 06:29:14;;;;;;;18.65;9.48;;;19.00;99.90;;;;;;5121363;27;20039;-66
2023/07/24 06:31:41;;;;;;;;;;;18.90;99.90;;;;;;5131654;27;20046;-66
2023/07/24 06:34:08;;;;;;;16.80;8.65;;;18.80;99.90;;;;;;5131377;27;20350;-66
2023/07/24 06:36:34;;;;;;;18.15;9.23;;;18.90;99.90;;;;;;5131907;28;20039;-66
2023/07/24 06:39:04;;;;;;;16.17;9.93;;;19.00;99.90;;;;;;5124031;28;20039;-66
2023/07/24 06:41:31;;;;;;;19.02;9.18;;;19.30;99.90;;;;;;5132423;27;20046;-66
2023/07/24 06:43:58;;;;;;;18.80;9.30;;;19.40;99.90;;;;;;5131141;28;20515;-66
2023/07/24 06:46:25;;;;;;;15.43;8.65;;;19.60;99.90;;;;;;5132312;28;20509;-66
2023/07/24 06:48:52;;;;;;;15.60;9.68;;;19.70;99.90;;;;;;5111280;28;20050;-66
2023/07/24 06:51:18;;;;;;;16.90;9.27;;;19.70;99.90;;;;;;5132277;27;20043;-66
2023/07/24 06:53:45;;;;;;;16.15;9.23;;;19.70;99.90;;;;;;5132058;28;20045;-65
2023/07/24 06:56:13;;;;;;;17.02;8.95;;;19.60;99.90;;;;;;5125991;28;20058;-66
2023/07/24 06:58:40;;;;;;;15.25;9.15;;;19.60;99.90;;;;;;5133884;27;20476;-66
2023/07/24 07:01:07;;;;;;;16.33;8.90;;;19.70;99.90;;;;;;5136272;27;20461;-66
2023/07/24 07:03:36;;;;;;;16.42;8.65;;;19.90;99.90;;;;;;5136241;27;20515;-66
2023/07/24 07:06:03;;;;;;;20.42;9.30;;;20.00;99.90;;;;;;5134330;27;20038;-65
2023/07/24 07:08:30;;;;;;;15.23;8.82;;;20.20;99.90;;;;;;5135897;27;20034;-66
2023/07/24 07:10:58;;;;;;;16.67;9.55;;;20.40;99.90;;;;;;5136056;27;20487;-66
2023/07/24 07:13:25;;;;;;;23.45;9.48;;;20.60;99.90;;;;;;5136047;27;20463;-66
2023/07/24 07:15:52;;;;;;;14.23;8.43;;;20.80;99.90;;;;;;5132229;27;20035;-65
2023/07/24 07:18:19;;;;;;;15.43;8.90;;;21.10;99.90;;;;;;5117709;27;20058;-66
2023/07/24 07:20:50;;;;;;;13.40;9.15;;;21.20;99.90;;;;;;5135957;27;20047;-66
2023/07/24 07:23:17;;;;;;;14.07;9.35;;;21.20;99.90;;;;;;5135721;27;20047;-66
2023/07/24 07:25:45;;;;;;;;;;;21.10;99.90;;;;;;5128976;27;20369;-66
2023/07/24 07:28:13;;;;;;;17.33;9.73;;;21.10;99.90;;;;;;5135680;27;19919;-66
2023/07/24 07:30:40;;;;;;;17.63;9.30;;;21.20;99.90;;;;;;5130155;27;20037;-66
2023/07/24 07:33:10;;;;;;;14.85;9.55;;;21.50;99.90;;;;;;5133391;27;20031;-66
2023/07/24 07:35:37;;;;;;;14.55;9.50;;;21.60;99.90;;;;;;5135474;27;20050;-66
2023/07/24 07:38:04;;;;;;;15.88;10.07;;;21.70;99.90;;;;;;5135453;27;20464;-66
2023/07/24 07:40:30;;;;;;;17.90;10.15;;;21.50;99.90;;;;;;5132588;27;20506;-66
2023/07/24 07:42:57;;;;;;;17.13;10.38;;;21.50;99.90;;;;;;5135403;27;20483;-66
2023/07/24 07:45:24;;;;;;;18.60;11.13;;;21.50;99.90;;;;;;5135333;27;20348;-66
2023/07/24 07:47:53;;;;;;;17.55;10.48;;;21.40;99.90;;;;;;5135317;27;20035;-66
2023/07/24 07:50:20;;;;;;;19.40;10.50;;;21.30;99.90;;;;;;5130623;27;20070;-66
2023/07/24 07:52:51;;;;;;;17.38;10.70;;;21.30;99.90;;;;;;5135217;27;20458;-66
2023/07/24 07:55:19;;;;;;;26.92;11.52;;;21.40;99.90;;;;;;5135098;27;20039;-66
2023/07/24 07:57:45;;;;;;;18.73;11.65;;;21.40;99.90;;;;;;5133090;27;20117;-66
2023/07/24 08:00:13;;;;;;;21.80;11.57;;;21.40;99.90;;;;;;5134667;27;20051;-65
2023/07/24 08:02:39;;;;;;;;;;;21.20;99.90;;;;;;5135445;27;20039;-66
2023/07/24 08:05:11;;;;;;;17.48;10.82;;;21.20;99.90;;;;;;5128766;27;19924;-66
2023/07/24 08:07:46;;;;;;;17.35;10.65;;;21.10;99.90;;;;;;5132498;27;20035;-66
2023/07/24 08:10:15;;;;;;;18.33;10.82;;;21.00;99.90;;;;;;5133742;27;20395;-66
2023/07/24 08:12:43;;;;;;;22.30;11.30;;;21.00;99.90;;;;;;5134811;27;20058;-66
2023/07/24 08:15:10;;;;;;;19.92;11.18;;;21.00;99.90;;;;;;5133461;27;20078;-65
2023/07/24 08:17:37;;;;;;;18.10;10.85;;;21.10;99.90;;;;;;5134696;27;20096;-66
2023/07/24 08:20:04;;;;;;;;;;;21.00;99.90;;;;;;5134786;27;20047;-66
2023/07/24 08:22:31;;;;;;;20.83;10.50;;;21.10;99.90;;;;;;5132294;27;19919;-65
2023/07/24 08:24:58;;;;;;;18.10;10.98;;;21.00;99.90;;;;;;5129470;27;20053;-65
2023/07/24 08:27:25;;;;;;;17.48;10.55;;;21.00;99.90;;;;;;5134453;27;20091;-66
2023/07/24 08:29:55;;;;;;;18.75;10.88;;;21.10;99.90;;;;;;5134049;27;20070;-66
2023/07/24 08:32:21;;;;;;;23.33;11.77;;;21.00;99.90;;;;;;5133458;27;20062;-66
2023/07/24 08:34:48;;;;;;;18.08;11.60;;;21.00;99.90;;;;;;5127528;27;20027;-66
2023/07/24 08:37:15;;;;;;;21.10;12.82;;;21.20;99.90;;;;;;5134120;27;20049;-66
2023/07/24 08:39:42;;;;;;;18.92;12.00;;;21.20;99.90;;;;;;5134240;27;20043;-65
2023/07/24 08:42:13;;;;;;;24.60;11.90;;;21.20;99.90;;;;;;5132254;27;20053;-66
2023/07/24 08:44:41;;;;;;;20.60;11.75;;;21.50;99.90;;;;;;5118533;27;20395;-66
2023/07/24 08:47:12;;;;;;;24.30;12.15;;;21.70;99.90;;;;;;5116001;27;20053;-66
2023/07/24 08:49:40;;;;;;;24.08;12.15;;;21.90;99.90;;;;;;5133078;27;20043;-66
2023/07/24 08:52:08;;;;;;;22.17;12.60;;;22.00;99.90;;;;;;5126913;27;20047;-66
2023/07/24 08:54:38;;;;;;;20.25;11.82;;;22.20;99.90;;;;;;5134135;27;20047;-66
2023/07/24 08:57:08;;;;;;;19.33;11.85;;;22.20;99.90;;;;;;5134148;27;20036;-65
2023/07/24 08:59:35;;;;;;;19.40;11.38;;;22.40;99.90;;;;;;5112994;27;20086;-66
2023/07/24 09:02:02;;;;;;;20.65;11.13;;;22.70;99.90;;;;;;5129077;27;20065;-65
2023/07/24 09:04:29;;;;;;;23.15;12.30;;;23.20;99.90;;;;;;5133595;27;20395;-66
2023/07/24 09:06:56;;;;;;;;;;;23.50;99.90;;;;;;5134619;27;20039;-66
2023/07/24 09:09:23;;;;;;;19.15;11.77;;;23.50;99.90;;;;;;5123284;27;20346;-66
2023/07/24 09:11:52;;;;;;;20.55;12.38;;;23.60;99.90;;;;;;5133979;27;20427;-66
2023/07/24 09:14:30;;;;;;;18.00;11.60;;;23.80;99.90;;;;;;5131699;27;20051;-66
2023/07/24 09:17:16;;;;;;;20.73;12.32;;;24.00;99.90;;;;;;5133927;27;20122;-66
2023/07/24 09:19:43;;;;;;;23.52;12.38;;;24.00;99.90;;;;;;5132787;27;20035;-66
2023/07/24 09:22:14;;;;;;;;;;;23.80;99.90;;;;;;5126451;27;20050;-66
2023/07/24 09:24:52;;;;;;;25.13;12.35;;;23.70;99.90;;;;;;5124435;27;19919;-66
2023/07/24 09:27:19;;;;;;;25.45;12.80;;;23.80;99.90;;;;;;5126817;27;20065;-66
2023/07/24 09:29:46;;;;;;;22.02;12.48;;;24.00;99.90;;;;;;5133295;27;20053;-66
2023/07/24 09:32:29;;;;;;;19.70;12.65;;;24.30;99.90;;;;;;5132683;27;20558;-66
2023/07/24 09:34:55;;;;;;;22.38;12.77;;;24.70;99.90;;;;;;5127034;27;20047;-66
2023/07/24 09:37:32;;;;;;;18.17;11.80;;;24.90;99.90;;;;;;5126634;27;20054;-66
2023/07/24 09:39:59;;;;;;;20.77;12.43;;;25.00;99.90;;;;;;5133212;27;20043;-66
2023/07/24 09:42:33;;;;;;;20.92;12.98;;;25.00;99.90;;;;;;5133002;27;20104;-66
2023/07/24 09:45:02;;;;;;;19.23;12.30;;;25.00;99.90;;;;;;5120776;27;20047;-66
2023/07/24 09:47:29;;;;;;;24.83;10.93;;;25.20;99.90;;;;;;5132538;27;20452;-66
2023/07/24 09:50:15;;;;;;;18.55;11.25;;;25.50;99.90;;;;;;5132495;27;20046;-66
2023/07/24 09:52:44;;;;;;;20.75;10.60;;;25.70;99.90;;;;;;5125005;27;20965;-66
2023/07/24 09:55:17;;;;;;;17.95;10.93;;;25.90;99.90;;;;;;5128541;27;20118;-66
2023/07/24 09:57:45;;;;;;;17.30;10.48;;;25.90;99.90;;;;;;5132821;27;20384;-66
2023/07/24 10:00:13;;;;;;;17.27;10.27;;;25.80;99.90;;;;;;5132805;27;20050;-66
2023/07/24 10:02:41;;;;;;;16.92;9.95;;;25.80;99.90;;;;;;5120559;27;20051;-66
2023/07/24 10:05:08;;;;;;;17.27;10.43;;;25.90;99.90;;;;;;5132905;27;20444;-66
2023/07/24 10:07:35;;;;;;;16.23;8.70;;;25.90;99.90;;;;;;5132701;27;20381;-66
2023/07/24 10:10:02;;;;;;;15.18;9.00;;;25.90;99.90;;;;;;5132666;27;20498;-67
2023/07/24 10:12:30;;;;;;;;;;;26.30;99.90;;;;;;5124194;27;20049;-66
2023/07/24 10:14:58;;;;;;;15.15;9.07;;;26.70;99.90;;;;;;5132746;27;20009;-66
2023/07/24 10:17:38;;;;;;;13.68;8.40;;;26.70;99.90;;;;;;5112677;27;20403;-66
2023/07/24 10:20:07;;;;;;;15.05;8.85;;;26.50;99.90;;;;;;5132116;27;20043;-66
2023/07/24 10:22:37;;;;;;;16.02;8.73;;;26.60;99.90;;;;;;5132011;27;20591;-66
2023/07/24 10:25:05;;;;;;;16.70;9.55;;;26.40;99.90;;;;;;5125968;27;20054;-66
2023/07/24 10:27:36;;;;;;;20.05;8.90;;;26.50;99.90;;;;;;5129928;27;20051;-67
2023/07/24 10:30:06;;;;;;;15.77;8.95;;;26.70;99.90;;;;;;5129622;27;20051;-66
2023/07/24 10:32:53;;;;;;;13.65;8.77;;;26.90;99.90;;;;;;5132206;27;20047;-66
2023/07/24 10:35:22;;;;;;;14.18;8.52;;;26.90;99.90;;;;;;5131699;27;20061;-66
2023/07/24 10:37:59;;;;;;;14.57;9.40;;;27.00;99.90;;;;;;5121897;27;20039;-67
2023/07/24 10:40:26;;;;;;;15.30;9.75;;;27.10;99.90;;;;;;5129032;28;20054;-66
2023/07/24 10:43:06;;;;;;;;;;;27.00;99.90;;;;;;5132664;28;20047;-66
2023/07/24 10:45:45;;;;;;;13.13;8.65;;;26.90;99.90;;;;;;5129998;27;19919;-67
2023/07/24 10:48:13;;;;;;;13.30;8.55;;;26.70;99.90;;;;;;5130392;28;20583;-66
2023/07/24 10:50:50;;;;;;;15.00;8.50;;;26.60;99.90;;;;;;5130247;28;20130;-66
2023/07/24 10:53:21;;;;;;;13.60;8.57;;;26.70;99.90;;;;;;5111726;28;20058;-66
2023/07/24 10:55:52;;;;;;;14.95;9.18;;;26.80;99.90;;;;;;5131949;28;20035;-66
2023/07/24 10:58:19;;;;;;;12.82;8.23;;;26.90;99.90;;;;;;5131921;27;20418;-66
2023/07/24 11:00:47;;;;;;;;;;;26.90;99.90;;;;;;5132051;28;20400;-66
2023/07/24 11:03:14;;;;;;;12.55;8.38;;;26.90;99.90;;;;;;5130060;27;19923;-66
2023/07/24 11:05:46;;;;;;;13.80;8.30;;;27.10;99.90;;;;;;5131938;27;20053;-66
2023/07/24 11:08:15;;;;;;;13.63;8.88;;;27.00;99.90;;;;;;5131125;27;20050;-66
2023/07/24 11:10:49;;;;;;;13.63;9.05;;;27.00;99.90;;;;;;5129603;28;20068;-66
2023/07/24 11:13:17;;;;;;;14.10;9.60;;;27.00;99.90;;;;;;5132254;28;20468;-67
2023/07/24 11:15:45;;;;;;;14.77;9.73;;;27.10;99.90;;;;;;5129574;27;20043;-66
2023/07/24 11:18:12;;;;;;;16.65;10.07;;;27.10;99.90;;;;;;5126543;28;20051;-67
2023/07/24 11:20:44;;;;;;;12.40;8.95;;;27.20;99.90;;;;;;5130910;27;20619;-66
2023/07/24 11:23:11;;;;;;;15.23;10.77;;;26.90;99.90;;;;;;5132046;27;20084;-66
2023/07/24 11:25:39;;;;;;;15.27;10.02;;;26.70;99.90;;;;;;5123003;28;20047;-66
2023/07/24 11:28:07;;;;;;;12.50;8.60;;;26.80;99.90;;;;;;5131472;28;20062;-66
2023/07/24 11:30:34;;;;;;;13.85;9.45;;;27.00;99.90;;;;;;5123980;28;20043;-66
2023/07/24 11:33:07;;;;;;;14.68;9.80;;;27.30;99.90;;;;;;5131646;27;20507;-66
2023/07/24 11:35:35;;;;;;;14.52;9.20;;;27.30;99.90;;;;;;5121537;28;20042;-66
2023/07/24 11:38:03;;;;;;;17.17;9.43;;;27.50;99.90;;;;;;5126868;27;20039;-66
2023/07/24 11:40:44;;;;;;;15.45;10.02;;;27.70;99.90;;;;;;5131417;28;20058;-66
2023/07/24 11:43:18;;;;;;;16.05;10.27;;;27.90;99.90;;;;;;5127922;27;20427;-67
2023/07/24 11:45:48;;;;;;;18.38;11.52;;;27.90;99.90;;;;;;5134652;27;20118;-66
2023/07/24 11:48:15;;;;;;;18.75;10.52;;;27.90;99.90;;;;;;5135406;27;20043;-66
2023/07/24 11:50:44;;;;;;;17.70;10.43;;;27.50;99.90;;;;;;5132551;27;20121;-66
2023/07/24 11:53:25;;;;;;;16.10;10.07;;;27.50;99.90;;;;;;5129160;27;20483;-66
2023/07/24 11:55:53;;;;;;;20.20;10.80;;;27.60;99.90;;;;;;5132804;27;20146;-66
2023/07/24 11:58:21;;;;;;;16.35;9.88;;;27.50;99.90;;;;;;5135433;27;20077;-66
2023/07/24 12:00:49;;;;;;;17.83;11.15;;;27.40;99.90;;;;;;5132967;27;20494;-66
2023/07/24 12:03:21;;;;;;;17.10;11.15;;;27.40;99.90;;;;;;5129485;27;20590;-66
2023/07/24 12:05:49;;;;;;;17.15;11.45;;;27.40;99.90;;;;;;5134314;27;20047;-66
2023/07/24 12:08:19;;;;;;;17.00;11.73;;;27.30;99.90;;;;;;5135169;27;20079;-66
2023/07/24 12:10:46;;;;;;;18.30;12.32;;;27.40;99.90;;;;;;5132875;27;20046;-66
2023/07/24 12:13:13;;;;;;;;;;;27.20;99.90;;;;;;5135152;27;20114;-66
2023/07/24 12:15:39;;;;;;;18.15;12.07;;;27.40;99.90;;;;;;5132851;27;19930;-66
2023/07/24 12:18:06;;;;;;;21.98;13.05;;;27.40;99.90;;;;;;5135018;27;20035;-66
2023/07/24 12:20:34;;;;;;;21.13;13.75;;;27.10;99.90;;;;;;5128500;27;20035;-66
2023/07/24 12:23:01;;;;;;;19.00;13.05;;;27.10;99.90;;;;;;5134896;27;20047;-66
2023/07/24 12:25:28;;;;;;;19.83;13.05;;;27.10;99.90;;;;;;5130242;27;20403;-66
2023/07/24 12:27:55;;;;;;;20.88;13.40;;;27.00;99.90;;;;;;5134580;27;20118;-66
2023/07/24 12:30:22;;;;;;;20.55;12.90;;;26.50;99.90;;;;;;5133871;27;20510;-66
2023/07/24 12:32:48;;;;;;;18.48;12.98;;;26.40;99.90;;;;;;5134453;27;20039;-66
2023/07/24 12:35:17;;;;;;;20.45;13.40;;;26.40;99.90;;;;;;5130375;27;20035;-66
2023/07/24 12:37:45;;;;;;;21.65;12.57;;;26.80;99.90;;;;;;5134363;27;20467;-66
2023/07/24 12:40:12;;;;;;;20.70;12.93;;;27.30;99.90;;;;;;5134404;27;20035;-66
2023/07/24 12:42:39;;;;;;;17.23;11.90;;;27.50;99.90;;;;;;5111453;27;20054;-66
2023/07/24 12:45:06;;;;;;;20.92;12.40;;;27.40;99.90;;;;;;5134520;27;20508;-67